sensor_id;sensor_type;location;lat;lon;timestamp;temperature;humidity
68450;SHT30;67758;39.572;2.652;2024-02-04T00:01:58;11.07;87.36
68450;SHT30;67758;39.572;2.652;2024-02-04T00:04:23;11.05;87.30
68450;SHT30;67758;39.572;2.652;2024-02-04T00:06:49;11.06;87.14
68450;SHT30;67758;39.572;2.652;2024-02-04T00:09:15;10.99;87.03
68450;SHT30;67758;39.572;2.652;2024-02-04T00:11:41;10.95;87.06
68450;SHT30;67758;39.572;2.652;2024-02-04T00:14:07;10.95;87.01
68450;SHT30;67758;39.572;2.652;2024-02-04T00:16:32;10.89;86.98
68450;SHT30;67758;39.572;2.652;2024-02-04T00:18:58;10.95;87.02
68450;SHT30;67758;39.572;2.652;2024-02-04T00:21:24;10.89;87.04
68450;SHT30;67758;39.572;2.652;2024-02-04T00:23:50;10.83;87.00
68450;SHT30;67758;39.572;2.652;2024-02-04T00:26:15;10.79;87.08
68450;SHT30;67758;39.572;2.652;2024-02-04T00:28:41;10.80;87.19
68450;SHT30;67758;39.572;2.652;2024-02-04T00:31:08;10.75;87.03
68450;SHT30;67758;39.572;2.652;2024-02-04T00:33:34;10.75;87.03
68450;SHT30;67758;39.572;2.652;2024-02-04T00:36:00;10.71;86.99
68450;SHT30;67758;39.572;2.652;2024-02-04T00:38:26;10.65;87.09
68450;SHT30;67758;39.572;2.652;2024-02-04T00:40:52;10.64;87.18
68450;SHT30;67758;39.572;2.652;2024-02-04T00:43:20;10.79;87.00
68450;SHT30;67758;39.572;2.652;2024-02-04T00:45:45;10.66;86.77
68450;SHT30;67758;39.572;2.652;2024-02-04T00:48:11;10.64;86.89
68450;SHT30;67758;39.572;2.652;2024-02-04T00:50:37;10.64;87.04
68450;SHT30;67758;39.572;2.652;2024-02-04T00:53:02;10.55;87.04
68450;SHT30;67758;39.572;2.652;2024-02-04T00:55:28;10.55;87.12
68450;SHT30;67758;39.572;2.652;2024-02-04T00:57:53;10.54;87.14
68450;SHT30;67758;39.572;2.652;2024-02-04T01:00:20;10.58;87.34
68450;SHT30;67758;39.572;2.652;2024-02-04T01:02:46;10.55;87.32
68450;SHT30;67758;39.572;2.652;2024-02-04T01:05:12;10.55;87.31
68450;SHT30;67758;39.572;2.652;2024-02-04T01:07:38;10.49;87.40
68450;SHT30;67758;39.572;2.652;2024-02-04T01:10:04;10.51;87.68
68450;SHT30;67758;39.572;2.652;2024-02-04T01:12:29;10.46;87.73
68450;SHT30;67758;39.572;2.652;2024-02-04T01:14:55;10.42;87.81
68450;SHT30;67758;39.572;2.652;2024-02-04T01:17:20;10.41;88.20
68450;SHT30;67758;39.572;2.652;2024-02-04T01:19:46;10.37;88.17
68450;SHT30;67758;39.572;2.652;2024-02-04T01:22:11;10.31;88.62
68450;SHT30;67758;39.572;2.652;2024-02-04T01:24:37;10.31;88.60
68450;SHT30;67758;39.572;2.652;2024-02-04T01:27:03;10.27;88.57
68450;SHT30;67758;39.572;2.652;2024-02-04T01:29:29;10.18;88.71
68450;SHT30;67758;39.572;2.652;2024-02-04T01:31:54;10.21;89.03
68450;SHT30;67758;39.572;2.652;2024-02-04T01:34:20;10.21;89.08
68450;SHT30;67758;39.572;2.652;2024-02-04T01:36:45;10.20;88.90
68450;SHT30;67758;39.572;2.652;2024-02-04T01:39:11;10.18;88.82
68450;SHT30;67758;39.572;2.652;2024-02-04T01:41:36;10.15;88.80
68450;SHT30;67758;39.572;2.652;2024-02-04T01:44:03;10.24;88.88
68450;SHT30;67758;39.572;2.652;2024-02-04T01:46:29;10.21;88.89
68450;SHT30;67758;39.572;2.652;2024-02-04T01:48:55;10.21;88.92
68450;SHT30;67758;39.572;2.652;2024-02-04T01:51:21;10.25;88.84
68450;SHT30;67758;39.572;2.652;2024-02-04T01:53:47;10.22;88.92
68450;SHT30;67758;39.572;2.652;2024-02-04T01:56:14;10.15;88.93
68450;SHT30;67758;39.572;2.652;2024-02-04T01:58:41;10.05;88.96
68450;SHT30;67758;39.572;2.652;2024-02-04T02:01:08;10.13;88.70
68450;SHT30;67758;39.572;2.652;2024-02-04T02:03:34;10.14;89.04
68450;SHT30;67758;39.572;2.652;2024-02-04T02:06:01;10.17;89.06
68450;SHT30;67758;39.572;2.652;2024-02-04T02:08:26;10.27;89.01
68450;SHT30;67758;39.572;2.652;2024-02-04T02:10:59;10.35;89.03
68450;SHT30;67758;39.572;2.652;2024-02-04T02:13:30;10.34;89.13
68450;SHT30;67758;39.572;2.652;2024-02-04T02:16:03;10.35;88.71
68450;SHT30;67758;39.572;2.652;2024-02-04T02:18:37;10.41;88.94
68450;SHT30;67758;39.572;2.652;2024-02-04T02:21:19;10.31;89.26
68450;SHT30;67758;39.572;2.652;2024-02-04T02:26:46;10.34;89.48
68450;SHT30;67758;39.572;2.652;2024-02-04T02:29:11;10.41;89.34
68450;SHT30;67758;39.572;2.652;2024-02-04T02:31:38;10.38;88.75
68450;SHT30;67758;39.572;2.652;2024-02-04T02:34:04;10.35;88.95
68450;SHT30;67758;39.572;2.652;2024-02-04T02:36:34;10.34;89.15
68450;SHT30;67758;39.572;2.652;2024-02-04T02:41:29;10.45;89.21
68450;SHT30;67758;39.572;2.652;2024-02-04T02:43:56;10.41;89.18
68450;SHT30;67758;39.572;2.652;2024-02-04T02:46:23;10.48;89.23
68450;SHT30;67758;39.572;2.652;2024-02-04T02:48:49;10.45;88.95
68450;SHT30;67758;39.572;2.652;2024-02-04T02:51:16;10.42;88.69
68450;SHT30;67758;39.572;2.652;2024-02-04T02:53:41;10.42;88.67
68450;SHT30;67758;39.572;2.652;2024-02-04T02:56:07;10.42;88.54
68450;SHT30;67758;39.572;2.652;2024-02-04T02:58:33;10.35;88.80
68450;SHT30;67758;39.572;2.652;2024-02-04T03:00:58;10.31;88.49
68450;SHT30;67758;39.572;2.652;2024-02-04T03:03:24;10.27;88.53
68450;SHT30;67758;39.572;2.652;2024-02-04T03:05:49;10.15;88.69
68450;SHT30;67758;39.572;2.652;2024-02-04T03:08:15;10.15;88.74
68450;SHT30;67758;39.572;2.652;2024-02-04T03:10:41;10.20;88.69
68450;SHT30;67758;39.572;2.652;2024-02-04T03:13:06;10.30;88.92
68450;SHT30;67758;39.572;2.652;2024-02-04T03:15:32;10.25;88.66
68450;SHT30;67758;39.572;2.652;2024-02-04T03:17:57;10.30;88.22
68450;SHT30;67758;39.572;2.652;2024-02-04T03:20:23;10.38;88.03
68450;SHT30;67758;39.572;2.652;2024-02-04T03:22:48;10.33;87.64
68450;SHT30;67758;39.572;2.652;2024-02-04T03:25:14;10.37;87.89
68450;SHT30;67758;39.572;2.652;2024-02-04T03:27:40;10.30;87.58
68450;SHT30;67758;39.572;2.652;2024-02-04T03:30:06;10.24;87.56
68450;SHT30;67758;39.572;2.652;2024-02-04T03:32:32;10.28;87.13
68450;SHT30;67758;39.572;2.652;2024-02-04T03:35:02;10.33;87.51
68450;SHT30;67758;39.572;2.652;2024-02-04T03:37:28;10.30;87.57
68450;SHT30;67758;39.572;2.652;2024-02-04T03:39:54;10.27;87.74
68450;SHT30;67758;39.572;2.652;2024-02-04T03:42:19;10.40;89.54
68450;SHT30;67758;39.572;2.652;2024-02-04T03:44:46;10.41;89.14
68450;SHT30;67758;39.572;2.652;2024-02-04T03:47:12;10.42;87.83
68450;SHT30;67758;39.572;2.652;2024-02-04T03:49:38;10.38;87.60
68450;SHT30;67758;39.572;2.652;2024-02-04T03:52:03;10.28;87.22
68450;SHT30;67758;39.572;2.652;2024-02-04T03:54:29;10.21;87.31
68450;SHT30;67758;39.572;2.652;2024-02-04T03:56:55;10.15;87.75
68450;SHT30;67758;39.572;2.652;2024-02-04T03:59:20;10.13;87.89
68450;SHT30;67758;39.572;2.652;2024-02-04T04:01:52;10.11;87.66
68450;SHT30;67758;39.572;2.652;2024-02-04T04:04:19;10.11;87.60
68450;SHT30;67758;39.572;2.652;2024-02-04T04:06:46;10.07;87.50
68450;SHT30;67758;39.572;2.652;2024-02-04T04:09:12;10.08;87.81
68450;SHT30;67758;39.572;2.652;2024-02-04T04:11:37;10.05;88.05
68450;SHT30;67758;39.572;2.652;2024-02-04T04:14:03;10.04;88.23
68450;SHT30;67758;39.572;2.652;2024-02-04T04:16:29;9.98;88.20
68450;SHT30;67758;39.572;2.652;2024-02-04T04:18:54;9.90;88.10
68450;SHT30;67758;39.572;2.652;2024-02-04T04:21:20;9.87;88.26
68450;SHT30;67758;39.572;2.652;2024-02-04T04:23:46;9.91;88.46
68450;SHT30;67758;39.572;2.652;2024-02-04T04:26:13;9.91;88.66
68450;SHT30;67758;39.572;2.652;2024-02-04T04:28:38;9.82;88.14
68450;SHT30;67758;39.572;2.652;2024-02-04T04:31:04;9.79;88.21
68450;SHT30;67758;39.572;2.652;2024-02-04T04:33:30;9.70;88.13
68450;SHT30;67758;39.572;2.652;2024-02-04T04:35:55;9.73;88.67
68450;SHT30;67758;39.572;2.652;2024-02-04T04:38:21;9.79;89.14
68450;SHT30;67758;39.572;2.652;2024-02-04T04:40:47;9.70;88.71
68450;SHT30;67758;39.572;2.652;2024-02-04T04:43:12;9.72;88.86
68450;SHT30;67758;39.572;2.652;2024-02-04T04:45:38;9.73;89.12
68450;SHT30;67758;39.572;2.652;2024-02-04T04:48:05;9.76;89.29
68450;SHT30;67758;39.572;2.652;2024-02-04T04:50:33;9.76;89.43
68450;SHT30;67758;39.572;2.652;2024-02-04T04:52:58;9.86;89.14
68450;SHT30;67758;39.572;2.652;2024-02-04T04:55:24;9.80;88.84
68450;SHT30;67758;39.572;2.652;2024-02-04T04:57:49;9.84;88.86
68450;SHT30;67758;39.572;2.652;2024-02-04T05:00:17;9.76;88.44
68450;SHT30;67758;39.572;2.652;2024-02-04T05:02:43;9.76;88.29
68450;SHT30;67758;39.572;2.652;2024-02-04T05:05:11;9.70;88.47
68450;SHT30;67758;39.572;2.652;2024-02-04T05:07:37;9.67;88.68
68450;SHT30;67758;39.572;2.652;2024-02-04T05:10:03;9.67;88.54
68450;SHT30;67758;39.572;2.652;2024-02-04T05:12:29;9.63;88.52
68450;SHT30;67758;39.572;2.652;2024-02-04T05:14:55;9.60;88.70
68450;SHT30;67758;39.572;2.652;2024-02-04T05:17:21;9.64;89.03
68450;SHT30;67758;39.572;2.652;2024-02-04T05:19:46;9.59;88.94
68450;SHT30;67758;39.572;2.652;2024-02-04T05:22:12;9.60;88.95
68450;SHT30;67758;39.572;2.652;2024-02-04T05:24:37;9.56;89.23
68450;SHT30;67758;39.572;2.652;2024-02-04T05:27:03;9.54;89.36
68450;SHT30;67758;39.572;2.652;2024-02-04T05:29:31;9.49;89.31
68450;SHT30;67758;39.572;2.652;2024-02-04T05:31:56;9.49;89.44
68450;SHT30;67758;39.572;2.652;2024-02-04T05:34:22;9.53;89.61
68450;SHT30;67758;39.572;2.652;2024-02-04T05:36:47;9.52;89.51
68450;SHT30;67758;39.572;2.652;2024-02-04T05:39:15;9.57;89.30
68450;SHT30;67758;39.572;2.652;2024-02-04T05:41:41;9.63;89.43
68450;SHT30;67758;39.572;2.652;2024-02-04T05:44:08;9.62;89.24
68450;SHT30;67758;39.572;2.652;2024-02-04T05:46:38;9.56;89.42
68450;SHT30;67758;39.572;2.652;2024-02-04T05:49:04;9.64;89.47
68450;SHT30;67758;39.572;2.652;2024-02-04T05:51:32;9.66;89.27
68450;SHT30;67758;39.572;2.652;2024-02-04T05:53:58;9.67;89.36
68450;SHT30;67758;39.572;2.652;2024-02-04T05:56:24;9.69;89.36
68450;SHT30;67758;39.572;2.652;2024-02-04T05:58:50;9.70;89.43
68450;SHT30;67758;39.572;2.652;2024-02-04T06:01:16;9.69;89.52
68450;SHT30;67758;39.572;2.652;2024-02-04T06:03:43;9.70;89.44
68450;SHT30;67758;39.572;2.652;2024-02-04T06:06:13;9.69;89.45
68450;SHT30;67758;39.572;2.652;2024-02-04T06:08:39;9.64;89.62
68450;SHT30;67758;39.572;2.652;2024-02-04T06:11:05;9.76;89.58
68450;SHT30;67758;39.572;2.652;2024-02-04T06:13:31;9.70;89.66
68450;SHT30;67758;39.572;2.652;2024-02-04T06:15:56;9.73;89.72
68450;SHT30;67758;39.572;2.652;2024-02-04T06:18:22;9.69;89.45
68450;SHT30;67758;39.572;2.652;2024-02-04T06:20:47;9.62;89.19
68450;SHT30;67758;39.572;2.652;2024-02-04T06:23:13;9.62;89.49
68450;SHT30;67758;39.572;2.652;2024-02-04T06:25:38;9.57;89.59
68450;SHT30;67758;39.572;2.652;2024-02-04T06:28:04;9.53;89.71
68450;SHT30;67758;39.572;2.652;2024-02-04T06:30:30;9.53;89.88
68450;SHT30;67758;39.572;2.652;2024-02-04T06:32:55;9.42;89.98
68450;SHT30;67758;39.572;2.652;2024-02-04T06:35:22;9.44;90.21
68450;SHT30;67758;39.572;2.652;2024-02-04T06:37:47;9.49;90.19
68450;SHT30;67758;39.572;2.652;2024-02-04T06:40:13;9.49;90.14
68450;SHT30;67758;39.572;2.652;2024-02-04T06:42:38;9.42;90.20
68450;SHT30;67758;39.572;2.652;2024-02-04T06:45:04;9.36;90.25
68450;SHT30;67758;39.572;2.652;2024-02-04T06:47:30;9.29;90.60
68450;SHT30;67758;39.572;2.652;2024-02-04T06:49:56;9.39;90.68
68450;SHT30;67758;39.572;2.652;2024-02-04T06:52:21;9.38;90.66
68450;SHT30;67758;39.572;2.652;2024-02-04T06:54:47;9.42;90.78
68450;SHT30;67758;39.572;2.652;2024-02-04T06:57:12;9.47;90.82
68450;SHT30;67758;39.572;2.652;2024-02-04T06:59:38;9.57;90.53
68450;SHT30;67758;39.572;2.652;2024-02-04T07:02:03;9.77;89.68
68450;SHT30;67758;39.572;2.652;2024-02-04T07:04:29;9.73;89.66
68450;SHT30;67758;39.572;2.652;2024-02-04T07:06:55;9.72;89.48
68450;SHT30;67758;39.572;2.652;2024-02-04T07:09:20;9.57;89.78
68450;SHT30;67758;39.572;2.652;2024-02-04T07:11:46;9.63;90.01
68450;SHT30;67758;39.572;2.652;2024-02-04T07:14:30;9.70;89.78
68450;SHT30;67758;39.572;2.652;2024-02-04T07:16:55;9.66;89.73
68450;SHT30;67758;39.572;2.652;2024-02-04T07:19:21;9.62;89.47
68450;SHT30;67758;39.572;2.652;2024-02-04T07:21:46;9.60;89.20
68450;SHT30;67758;39.572;2.652;2024-02-04T07:24:12;9.57;89.14
68450;SHT30;67758;39.572;2.652;2024-02-04T07:26:37;9.49;88.79
68450;SHT30;67758;39.572;2.652;2024-02-04T07:29:03;9.50;89.04
68450;SHT30;67758;39.572;2.652;2024-02-04T07:31:30;9.49;89.16
68450;SHT30;67758;39.572;2.652;2024-02-04T07:33:55;9.50;88.98
68450;SHT30;67758;39.572;2.652;2024-02-04T07:36:21;9.42;88.94
68450;SHT30;67758;39.572;2.652;2024-02-04T07:38:47;9.39;89.00
68450;SHT30;67758;39.572;2.652;2024-02-04T07:41:15;9.35;89.19
68450;SHT30;67758;39.572;2.652;2024-02-04T07:43:42;9.33;89.53
68450;SHT30;67758;39.572;2.652;2024-02-04T07:46:09;9.36;89.47
68450;SHT30;67758;39.572;2.652;2024-02-04T07:48:35;9.40;89.57
68450;SHT30;67758;39.572;2.652;2024-02-04T07:51:00;9.38;89.37
68450;SHT30;67758;39.572;2.652;2024-02-04T07:53:26;9.35;89.99
68450;SHT30;67758;39.572;2.652;2024-02-04T07:55:51;9.36;90.22
68450;SHT30;67758;39.572;2.652;2024-02-04T07:58:17;9.39;90.20
68450;SHT30;67758;39.572;2.652;2024-02-04T08:00:42;9.44;90.05
68450;SHT30;67758;39.572;2.652;2024-02-04T08:03:08;9.54;90.39
68450;SHT30;67758;39.572;2.652;2024-02-04T08:05:34;9.57;90.40
68450;SHT30;67758;39.572;2.652;2024-02-04T08:08:01;9.63;90.42
68450;SHT30;67758;39.572;2.652;2024-02-04T08:10:27;9.76;90.46
68450;SHT30;67758;39.572;2.652;2024-02-04T08:12:52;9.83;90.41
68450;SHT30;67758;39.572;2.652;2024-02-04T08:15:19;9.84;90.10
68450;SHT30;67758;39.572;2.652;2024-02-04T08:17:45;9.95;90.00
68450;SHT30;67758;39.572;2.652;2024-02-04T08:20:11;10.00;90.10
68450;SHT30;67758;39.572;2.652;2024-02-04T08:22:37;10.13;89.30
68450;SHT30;67758;39.572;2.652;2024-02-04T08:25:06;10.20;88.81
68450;SHT30;67758;39.572;2.652;2024-02-04T08:27:32;10.27;88.88
68450;SHT30;67758;39.572;2.652;2024-02-04T08:29:58;10.31;88.81
68450;SHT30;67758;39.572;2.652;2024-02-04T08:32:24;10.37;89.08
68450;SHT30;67758;39.572;2.652;2024-02-04T08:34:49;10.42;89.36
68450;SHT30;67758;39.572;2.652;2024-02-04T08:37:15;10.56;89.84
68450;SHT30;67758;39.572;2.652;2024-02-04T08:39:40;10.69;89.12
68450;SHT30;67758;39.572;2.652;2024-02-04T08:42:06;10.76;88.94
68450;SHT30;67758;39.572;2.652;2024-02-04T08:44:31;10.80;89.73
68450;SHT30;67758;39.572;2.652;2024-02-04T08:46:57;10.92;90.49
68450;SHT30;67758;39.572;2.652;2024-02-04T08:49:23;11.06;90.87
68450;SHT30;67758;39.572;2.652;2024-02-04T08:51:48;11.12;90.64
68450;SHT30;67758;39.572;2.652;2024-02-04T08:54:14;11.17;90.23
68450;SHT30;67758;39.572;2.652;2024-02-04T08:56:40;11.26;89.95
68450;SHT30;67758;39.572;2.652;2024-02-04T08:59:05;11.30;89.73
68450;SHT30;67758;39.572;2.652;2024-02-04T09:01:34;11.33;89.79
68450;SHT30;67758;39.572;2.652;2024-02-04T09:04:02;11.33;89.52
68450;SHT30;67758;39.572;2.652;2024-02-04T09:06:28;11.38;89.63
68450;SHT30;67758;39.572;2.652;2024-02-04T09:08:54;11.46;89.36
68450;SHT30;67758;39.572;2.652;2024-02-04T09:11:19;11.50;89.32
68450;SHT30;67758;39.572;2.652;2024-02-04T09:13:46;11.60;89.50
68450;SHT30;67758;39.572;2.652;2024-02-04T09:16:12;11.75;89.38
68450;SHT30;67758;39.572;2.652;2024-02-04T09:18:37;11.85;89.24
68450;SHT30;67758;39.572;2.652;2024-02-04T09:21:03;12.06;89.01
68450;SHT30;67758;39.572;2.652;2024-02-04T09:23:29;12.12;89.25
68450;SHT30;67758;39.572;2.652;2024-02-04T09:25:57;12.17;88.81
68450;SHT30;67758;39.572;2.652;2024-02-04T09:28:23;12.48;89.92
68450;SHT30;67758;39.572;2.652;2024-02-04T09:30:49;12.86;89.73
68450;SHT30;67758;39.572;2.652;2024-02-04T09:33:14;13.21;89.36
68450;SHT30;67758;39.572;2.652;2024-02-04T09:35:40;13.41;88.75
68450;SHT30;67758;39.572;2.652;2024-02-04T09:38:06;13.68;88.52
68450;SHT30;67758;39.572;2.652;2024-02-04T09:40:31;13.85;88.18
68450;SHT30;67758;39.572;2.652;2024-02-04T09:42:59;14.02;87.87
68450;SHT30;67758;39.572;2.652;2024-02-04T09:45:25;14.26;87.57
68450;SHT30;67758;39.572;2.652;2024-02-04T09:47:53;14.57;86.84
68450;SHT30;67758;39.572;2.652;2024-02-04T09:50:22;14.76;86.12
68450;SHT30;67758;39.572;2.652;2024-02-04T09:52:50;14.83;85.85
68450;SHT30;67758;39.572;2.652;2024-02-04T09:55:17;14.91;85.46
68450;SHT30;67758;39.572;2.652;2024-02-04T09:57:45;14.94;85.29
68450;SHT30;67758;39.572;2.652;2024-02-04T10:00:11;15.01;85.00
68450;SHT30;67758;39.572;2.652;2024-02-04T10:02:38;15.09;84.64
68450;SHT30;67758;39.572;2.652;2024-02-04T10:05:04;15.15;84.58
68450;SHT30;67758;39.572;2.652;2024-02-04T10:07:30;15.22;83.87
68450;SHT30;67758;39.572;2.652;2024-02-04T10:09:56;15.29;83.27
68450;SHT30;67758;39.572;2.652;2024-02-04T10:12:22;15.35;83.09
68450;SHT30;67758;39.572;2.652;2024-02-04T10:14:49;15.39;82.15
68450;SHT30;67758;39.572;2.652;2024-02-04T10:17:18;15.49;82.03
68450;SHT30;67758;39.572;2.652;2024-02-04T10:19:47;15.53;82.25
68450;SHT30;67758;39.572;2.652;2024-02-04T10:22:14;15.63;81.82
68450;SHT30;67758;39.572;2.652;2024-02-04T10:24:42;15.70;81.53
68450;SHT30;67758;39.572;2.652;2024-02-04T10:27:10;15.69;80.88
68450;SHT30;67758;39.572;2.652;2024-02-04T10:29:36;15.90;80.77
68450;SHT30;67758;39.572;2.652;2024-02-04T10:32:02;15.77;80.82
68450;SHT30;67758;39.572;2.652;2024-02-04T10:34:28;15.86;81.23
68450;SHT30;67758;39.572;2.652;2024-02-04T10:36:56;15.93;81.02
68450;SHT30;67758;39.572;2.652;2024-02-04T10:39:22;16.31;79.90
68450;SHT30;67758;39.572;2.652;2024-02-04T10:41:52;17.73;75.32
68450;SHT30;67758;39.572;2.652;2024-02-04T10:44:22;18.44;72.93
68450;SHT30;67758;39.572;2.652;2024-02-04T10:46:50;18.73;71.51
68450;SHT30;67758;39.572;2.652;2024-02-04T10:49:18;18.90;70.80
68450;SHT30;67758;39.572;2.652;2024-02-04T10:51:45;19.30;70.21
68450;SHT30;67758;39.572;2.652;2024-02-04T10:54:12;19.38;69.67
68450;SHT30;67758;39.572;2.652;2024-02-04T10:56:42;19.61;69.49
68450;SHT30;67758;39.572;2.652;2024-02-04T10:59:09;19.83;67.92
68450;SHT30;67758;39.572;2.652;2024-02-04T11:01:40;19.89;67.62
68450;SHT30;67758;39.572;2.652;2024-02-04T11:04:08;19.88;68.28
68450;SHT30;67758;39.572;2.652;2024-02-04T11:06:36;19.46;69.12
68450;SHT30;67758;39.572;2.652;2024-02-04T11:09:04;18.87;70.57
68450;SHT30;67758;39.572;2.652;2024-02-04T11:11:32;18.96;70.29
68450;SHT30;67758;39.572;2.652;2024-02-04T11:14:01;20.22;67.82
68450;SHT30;67758;39.572;2.652;2024-02-04T11:16:34;20.29;66.68
68450;SHT30;67758;39.572;2.652;2024-02-04T11:27:47;21.01;65.55
68450;SHT30;67758;39.572;2.652;2024-02-04T11:30:14;20.64;65.39
68450;SHT30;67758;39.572;2.652;2024-02-04T11:32:41;21.56;64.19
68450;SHT30;67758;39.572;2.652;2024-02-04T11:35:07;21.24;64.51
68450;SHT30;67758;39.572;2.652;2024-02-04T11:37:33;21.48;63.79
68450;SHT30;67758;39.572;2.652;2024-02-04T11:39:59;21.34;63.85
68450;SHT30;67758;39.572;2.652;2024-02-04T11:42:25;21.25;63.90
68450;SHT30;67758;39.572;2.652;2024-02-04T11:45:11;21.51;63.58
68450;SHT30;67758;39.572;2.652;2024-02-04T11:47:37;21.41;64.00
68450;SHT30;67758;39.572;2.652;2024-02-04T11:50:04;22.02;63.27
68450;SHT30;67758;39.572;2.652;2024-02-04T11:52:30;22.00;63.33
68450;SHT30;67758;39.572;2.652;2024-02-04T11:54:56;22.20;63.05
68450;SHT30;67758;39.572;2.652;2024-02-04T11:57:22;21.72;63.60
68450;SHT30;67758;39.572;2.652;2024-02-04T11:59:48;21.69;63.59
68450;SHT30;67758;39.572;2.652;2024-02-04T12:02:18;22.14;62.95
68450;SHT30;67758;39.572;2.652;2024-02-04T12:04:45;22.10;63.11
68450;SHT30;67758;39.572;2.652;2024-02-04T12:07:13;22.10;62.80
68450;SHT30;67758;39.572;2.652;2024-02-04T12:09:39;22.02;63.22
68450;SHT30;67758;39.572;2.652;2024-02-04T12:12:06;22.20;62.39
68450;SHT30;67758;39.572;2.652;2024-02-04T12:14:32;21.71;63.64
68450;SHT30;67758;39.572;2.652;2024-02-04T12:16:58;22.21;62.57
68450;SHT30;67758;39.572;2.652;2024-02-04T12:19:24;21.65;63.79
68450;SHT30;67758;39.572;2.652;2024-02-04T12:21:50;21.38;64.89
68450;SHT30;67758;39.572;2.652;2024-02-04T12:24:16;21.00;65.38
68450;SHT30;67758;39.572;2.652;2024-02-04T12:26:45;21.38;65.12
68450;SHT30;67758;39.572;2.652;2024-02-04T12:29:13;21.08;65.80
68450;SHT30;67758;39.572;2.652;2024-02-04T12:31:39;20.87;66.02
68450;SHT30;67758;39.572;2.652;2024-02-04T12:34:07;21.34;65.45
68450;SHT30;67758;39.572;2.652;2024-02-04T12:36:33;21.32;65.58
68450;SHT30;67758;39.572;2.652;2024-02-04T12:39:00;21.66;64.69
68450;SHT30;67758;39.572;2.652;2024-02-04T12:41:27;20.80;66.34
68450;SHT30;67758;39.572;2.652;2024-02-04T12:43:57;21.11;65.64
68450;SHT30;67758;39.572;2.652;2024-02-04T12:46:27;21.24;65.37
68450;SHT30;67758;39.572;2.652;2024-02-04T12:48:54;20.91;66.53
68450;SHT30;67758;39.572;2.652;2024-02-04T12:54:11;20.56;67.95
68450;SHT30;67758;39.572;2.652;2024-02-04T12:56:54;20.29;68.67
68450;SHT30;67758;39.572;2.652;2024-02-04T12:59:30;20.00;69.11
68450;SHT30;67758;39.572;2.652;2024-02-04T13:02:03;20.26;68.96
68450;SHT30;67758;39.572;2.652;2024-02-04T13:04:38;20.18;68.73
68450;SHT30;67758;39.572;2.652;2024-02-04T13:07:08;19.50;70.31
68450;SHT30;67758;39.572;2.652;2024-02-04T13:09:38;19.06;71.74
68450;SHT30;67758;39.572;2.652;2024-02-04T13:12:07;19.30;71.57
68450;SHT30;67758;39.572;2.652;2024-02-04T13:14:37;18.99;71.84
68450;SHT30;67758;39.572;2.652;2024-02-04T13:17:04;18.57;72.77
68450;SHT30;67758;39.572;2.652;2024-02-04T13:19:48;18.41;73.38
68450;SHT30;67758;39.572;2.652;2024-02-04T13:22:16;18.63;73.29
68450;SHT30;67758;39.572;2.652;2024-02-04T13:24:42;18.39;73.50
68450;SHT30;67758;39.572;2.652;2024-02-04T13:27:08;18.38;74.12
68450;SHT30;67758;39.572;2.652;2024-02-04T13:29:42;18.39;73.49
68450;SHT30;67758;39.572;2.652;2024-02-04T13:32:08;18.53;73.01
68450;SHT30;67758;39.572;2.652;2024-02-04T13:34:34;18.62;72.67
68450;SHT30;67758;39.572;2.652;2024-02-04T13:36:59;18.72;72.80
68450;SHT30;67758;39.572;2.652;2024-02-04T13:39:25;18.73;72.37
68450;SHT30;67758;39.572;2.652;2024-02-04T13:41:50;19.11;71.43
68450;SHT30;67758;39.572;2.652;2024-02-04T13:44:16;19.20;70.21
68450;SHT30;67758;39.572;2.652;2024-02-04T13:46:42;19.11;70.50
68450;SHT30;67758;39.572;2.652;2024-02-04T13:49:09;18.75;71.20
68450;SHT30;67758;39.572;2.652;2024-02-04T13:51:34;18.35;73.11
68450;SHT30;67758;39.572;2.652;2024-02-04T13:54:01;18.63;72.75
68450;SHT30;67758;39.572;2.652;2024-02-04T13:56:27;19.18;71.54
68450;SHT30;67758;39.572;2.652;2024-02-04T13:58:55;20.05;69.73
68450;SHT30;67758;39.572;2.652;2024-02-04T14:01:20;20.25;68.32
68450;SHT30;67758;39.572;2.652;2024-02-04T14:03:48;20.63;67.55
68450;SHT30;67758;39.572;2.652;2024-02-04T14:06:15;21.20;65.97
68450;SHT30;67758;39.572;2.652;2024-02-04T14:08:40;21.22;65.45
68450;SHT30;67758;39.572;2.652;2024-02-04T14:11:06;21.14;65.08
68450;SHT30;67758;39.572;2.652;2024-02-04T14:13:31;20.95;65.05
68450;SHT30;67758;39.572;2.652;2024-02-04T14:15:58;21.32;65.53
68450;SHT30;67758;39.572;2.652;2024-02-04T14:18:24;21.11;65.11
68450;SHT30;67758;39.572;2.652;2024-02-04T14:20:49;20.80;66.20
68450;SHT30;67758;39.572;2.652;2024-02-04T14:23:15;20.64;66.67
68450;SHT30;67758;39.572;2.652;2024-02-04T14:25:40;20.64;66.75
68450;SHT30;67758;39.572;2.652;2024-02-04T14:28:06;20.30;67.63
68450;SHT30;67758;39.572;2.652;2024-02-04T14:30:31;20.09;68.66
68450;SHT30;67758;39.572;2.652;2024-02-04T14:32:57;19.99;69.09
68450;SHT30;67758;39.572;2.652;2024-02-04T14:35:23;20.29;68.36
68450;SHT30;67758;39.572;2.652;2024-02-04T14:37:48;20.09;68.50
68450;SHT30;67758;39.572;2.652;2024-02-04T14:40:14;19.93;68.97
68450;SHT30;67758;39.572;2.652;2024-02-04T14:42:40;20.12;68.38
68450;SHT30;67758;39.572;2.652;2024-02-04T14:45:06;20.47;67.65
68450;SHT30;67758;39.572;2.652;2024-02-04T14:47:32;20.50;67.13
68450;SHT30;67758;39.572;2.652;2024-02-04T14:49:57;20.44;67.51
68450;SHT30;67758;39.572;2.652;2024-02-04T14:52:23;20.60;66.61
68450;SHT30;67758;39.572;2.652;2024-02-04T14:54:49;20.73;66.54
68450;SHT30;67758;39.572;2.652;2024-02-04T14:57:22;20.57;67.16
68450;SHT30;67758;39.572;2.652;2024-02-04T14:59:47;20.40;67.52
68450;SHT30;67758;39.572;2.652;2024-02-04T15:02:13;20.40;67.43
68450;SHT30;67758;39.572;2.652;2024-02-04T15:04:39;20.32;68.07
68450;SHT30;67758;39.572;2.652;2024-02-04T15:07:05;20.76;67.18
68450;SHT30;67758;39.572;2.652;2024-02-04T15:09:34;20.70;67.32
68450;SHT30;67758;39.572;2.652;2024-02-04T15:12:03;20.81;67.11
68450;SHT30;67758;39.572;2.652;2024-02-04T15:14:29;20.83;67.00
68450;SHT30;67758;39.572;2.652;2024-02-04T15:16:56;21.08;66.34
68450;SHT30;67758;39.572;2.652;2024-02-04T15:19:25;20.67;66.88
68450;SHT30;67758;39.572;2.652;2024-02-04T15:21:52;21.00;66.18
68450;SHT30;67758;39.572;2.652;2024-02-04T15:24:18;21.15;65.86
68450;SHT30;67758;39.572;2.652;2024-02-04T15:26:48;20.98;66.14
68450;SHT30;67758;39.572;2.652;2024-02-04T15:29:14;21.42;64.74
68450;SHT30;67758;39.572;2.652;2024-02-04T15:31:44;21.32;64.96
68450;SHT30;67758;39.572;2.652;2024-02-04T15:34:12;21.34;64.61
68450;SHT30;67758;39.572;2.652;2024-02-04T15:36:38;21.75;64.17
68450;SHT30;67758;39.572;2.652;2024-02-04T15:39:03;21.82;63.52
68450;SHT30;67758;39.572;2.652;2024-02-04T15:41:30;22.06;62.70
68450;SHT30;67758;39.572;2.652;2024-02-04T15:46:51;21.62;63.14
68450;SHT30;67758;39.572;2.652;2024-02-04T15:49:23;21.99;62.46
68450;SHT30;67758;39.572;2.652;2024-02-04T15:51:50;22.60;61.10